createdAt,value
2023-04-16T00:00:36.317Z,83.63
2023-04-16T00:03:39.816Z,83.73
2023-04-16T00:06:43.412Z,84.54
2023-04-16T00:09:46.850Z,84.06
2023-04-16T00:12:49.860Z,83.78
2023-04-16T00:15:53.284Z,83.68
2023-04-16T00:18:56.376Z,83.94
2023-04-16T00:21:59.235Z,83.81
2023-04-16T00:25:02.234Z,83.37
2023-04-16T00:28:06.219Z,85.33
2023-04-16T00:31:09.200Z,85.28
2023-04-16T00:34:12.428Z,85.29
2023-04-16T00:37:15.807Z,85.33
2023-04-16T00:40:18.602Z,85.30
2023-04-16T00:43:26.221Z,84.35
2023-04-16T00:46:29.555Z,84.53
2023-04-16T00:49:32.960Z,84.67
2023-04-16T00:52:36.133Z,85.24
2023-04-16T00:55:40.086Z,84.88
2023-04-16T00:58:43.478Z,85.43
2023-04-16T01:01:46.530Z,85.69
2023-04-16T01:04:51.862Z,85.62
2023-04-16T01:08:00.087Z,84.94
2023-04-16T01:11:03.767Z,84.61
2023-04-16T01:14:07.220Z,83.99
2023-04-16T01:17:10.327Z,83.43
2023-04-16T01:20:13.510Z,83.47
2023-04-16T01:23:18.720Z,83.54
2023-04-16T01:26:24.258Z,83.11
2023-04-16T01:29:27.584Z,82.78
2023-04-16T01:32:33.650Z,82.84
2023-04-16T01:35:36.802Z,83.00
2023-04-16T01:38:40.174Z,82.95
2023-04-16T01:41:43.809Z,82.43
2023-04-16T01:44:47.733Z,82.30
2023-04-16T01:47:51.427Z,81.64
2023-04-16T01:50:55.982Z,81.52
2023-04-16T01:53:59.756Z,80.67
2023-04-16T01:57:03.276Z,80.51
2023-04-16T02:00:08.558Z,81.48
2023-04-16T02:03:25.040Z,81.09
2023-04-16T02:06:29.146Z,80.31
2023-04-16T02:09:35.723Z,81.27
2023-04-16T02:12:41.889Z,81.77
2023-04-16T02:15:47.211Z,81.71
2023-04-16T02:18:51.614Z,82.26
2023-04-16T02:21:57.545Z,84.47
2023-04-16T02:25:00.983Z,83.26
2023-04-16T02:28:04.927Z,82.08
2023-04-16T02:31:13.864Z,82.71
2023-04-16T02:34:20.641Z,83.43
2023-04-16T02:37:26.078Z,83.17
2023-04-16T02:40:29.681Z,81.79
2023-04-16T02:43:32.993Z,80.92
2023-04-16T02:46:36.017Z,81.90
2023-04-16T02:49:39.283Z,82.45
2023-04-16T02:52:42.600Z,82.51
2023-04-16T02:55:53.014Z,82.49
2023-04-16T02:58:56.525Z,83.37
2023-04-16T03:01:59.879Z,82.92
2023-04-16T03:05:04.031Z,83.79
2023-04-16T03:08:07.899Z,83.60
2023-04-16T03:11:10.931Z,83.91
2023-04-16T03:14:14.434Z,84.21
2023-04-16T03:17:17.859Z,84.11
2023-04-16T03:20:20.977Z,83.89
2023-04-16T03:23:24.115Z,84.30
2023-04-16T03:26:27.608Z,85.43
2023-04-16T03:29:31.764Z,84.60
2023-04-16T03:32:35.162Z,85.03
2023-04-16T03:35:40.276Z,85.61
2023-04-16T03:38:44.482Z,85.73
2023-04-16T03:41:47.734Z,85.90
2023-04-16T03:44:51.533Z,86.15
2023-04-16T03:47:54.888Z,86.43
2023-04-16T03:51:01.358Z,86.25
2023-04-16T03:54:05.774Z,86.98
2023-04-16T03:57:09.522Z,87.08
2023-04-16T04:00:14.409Z,86.65
2023-04-16T04:03:18.128Z,86.92
2023-04-16T04:06:23.988Z,87.13
2023-04-16T04:09:27.196Z,86.11
2023-04-16T04:12:32.313Z,86.93
2023-04-16T04:15:35.816Z,86.76
2023-04-16T04:18:39.132Z,87.57
2023-04-16T04:21:43.064Z,87.21
2023-04-16T04:24:46.336Z,87.03
2023-04-16T04:27:50.242Z,87.06
2023-04-16T04:30:53.589Z,86.82
2023-04-16T04:33:57.010Z,86.72
2023-04-16T04:37:00.829Z,87.16
2023-04-16T04:40:05.905Z,87.33
2023-04-16T04:43:11.103Z,87.14
2023-04-16T04:46:14.695Z,87.38
2023-04-16T04:49:18.049Z,87.33
2023-04-16T04:52:21.133Z,87.35
2023-04-16T04:55:25.609Z,87.78
2023-04-16T04:58:29.529Z,87.43
2023-04-16T05:01:33.402Z,87.73
2023-04-16T05:04:36.543Z,86.22
2023-04-16T05:07:39.536Z,85.53
2023-04-16T05:10:46.358Z,85.80
2023-04-16T05:13:52.144Z,86.16
2023-04-16T05:16:55.650Z,86.46
2023-04-16T05:19:58.755Z,86.88
2023-04-16T05:23:01.873Z,86.49
2023-04-16T05:26:05.355Z,85.93
2023-04-16T05:29:09.068Z,85.90
2023-04-16T05:32:12.735Z,85.44
2023-04-16T05:35:17.544Z,85.19
2023-04-16T05:38:20.849Z,85.17
2023-04-16T05:41:23.987Z,84.25
2023-04-16T05:44:27.440Z,84.32
2023-04-16T05:47:30.602Z,83.48
2023-04-16T05:50:33.871Z,83.43
2023-04-16T05:53:37.237Z,84.20
2023-04-16T05:56:40.420Z,83.23
2023-04-16T05:59:43.502Z,82.21
2023-04-16T06:02:46.719Z,79.05
2023-04-16T06:05:50.096Z,78.88
2023-04-16T06:08:53.580Z,79.47
2023-04-16T06:11:58.194Z,81.09
2023-04-16T06:15:01.496Z,78.44
2023-04-16T06:18:06.599Z,78.89
2023-04-16T06:21:10.941Z,77.53
2023-04-16T06:24:14.188Z,75.83
2023-04-16T06:27:17.342Z,76.51
2023-04-16T06:30:21.086Z,75.92
2023-04-16T06:33:24.680Z,76.25
2023-04-16T06:36:29.087Z,78.01
2023-04-16T06:39:32.167Z,76.80
2023-04-16T06:42:35.191Z,75.86
2023-04-16T06:45:38.694Z,77.18
2023-04-16T06:48:42.675Z,76.02
2023-04-16T06:51:45.938Z,75.99
2023-04-16T06:54:49.167Z,76.93
2023-04-16T06:57:52.389Z,76.77
2023-04-16T07:00:55.963Z,77.19
2023-04-16T07:03:59.452Z,77.26
2023-04-16T07:07:03.035Z,74.89
2023-04-16T07:10:06.662Z,74.44
2023-04-16T07:13:10.194Z,74.68
2023-04-16T07:16:13.584Z,75.84
2023-04-16T07:19:16.846Z,74.98
2023-04-16T07:22:20.807Z,74.15
2023-04-16T07:25:23.654Z,74.01
2023-04-16T07:28:27.136Z,73.46
2023-04-16T07:31:31.231Z,71.93
2023-04-16T07:34:34.497Z,74.16
2023-04-16T07:37:37.973Z,71.90
2023-04-16T07:40:41.645Z,72.38
2023-04-16T07:43:44.836Z,71.75
2023-04-16T07:46:48.024Z,70.60
2023-04-16T07:49:51.034Z,71.19
2023-04-16T07:52:54.190Z,72.13
2023-04-16T07:55:57.397Z,72.02
2023-04-16T07:59:07.914Z,72.33
2023-04-16T08:02:22.512Z,72.79
2023-04-16T08:05:25.637Z,71.85
2023-04-16T08:08:29.964Z,73.14
2023-04-16T08:11:33.449Z,73.09
2023-04-16T08:14:36.909Z,74.33
2023-04-16T08:17:40.230Z,74.71
2023-04-16T08:20:43.354Z,74.76
2023-04-16T08:23:46.549Z,75.89
2023-04-16T08:26:50.017Z,77.83
2023-04-16T08:29:53.427Z,77.95
2023-04-16T08:32:56.850Z,78.40
2023-04-16T08:35:59.976Z,77.68
2023-04-16T08:39:03.121Z,77.74
2023-04-16T08:42:13.149Z,77.43
2023-04-16T08:45:19.586Z,79.47
2023-04-16T08:48:26.576Z,76.86
2023-04-16T08:51:36.064Z,77.77
2023-04-16T08:54:46.750Z,76.84
2023-04-16T08:58:00.554Z,77.09
2023-04-16T09:01:04.595Z,77.15
2023-04-16T09:04:09.389Z,75.95
2023-04-16T09:07:12.680Z,76.17
2023-04-16T09:10:16.661Z,76.32
2023-04-16T09:13:20.775Z,77.36
2023-04-16T09:16:25.230Z,76.81
2023-04-16T09:19:29.271Z,77.25
2023-04-16T09:22:35.559Z,76.85
2023-04-16T09:25:40.279Z,76.76
2023-04-16T09:28:46.989Z,76.53
2023-04-16T09:32:27.623Z,78.81
2023-04-16T09:35:45.792Z,75.94
2023-04-16T09:38:51.658Z,74.80
2023-04-16T09:41:55.478Z,75.49
2023-04-16T09:45:01.388Z,75.20
2023-04-16T09:48:07.636Z,75.12
2023-04-16T09:51:11.005Z,76.69
2023-04-16T09:54:15.701Z,73.40
2023-04-16T09:57:25.746Z,76.59
2023-04-16T10:00:30.991Z,75.19
2023-04-16T10:03:36.469Z,73.53
2023-04-16T10:06:39.691Z,74.00
2023-04-16T10:09:43.176Z,74.29
2023-04-16T10:12:46.904Z,73.66
2023-04-16T10:15:50.502Z,72.96
2023-04-16T10:18:57.144Z,72.22
2023-04-16T10:22:00.322Z,72.60
2023-04-16T10:25:04.214Z,71.33
2023-04-16T10:28:07.653Z,71.07
2023-04-16T10:31:20.553Z,69.88
2023-04-16T10:34:25.149Z,69.82
2023-04-16T10:37:32.380Z,69.83
2023-04-16T10:40:35.666Z,70.42
2023-04-16T10:44:00.104Z,69.94
2023-04-16T10:47:03.583Z,70.35
2023-04-16T10:50:16.641Z,68.87
2023-04-16T10:53:23.090Z,69.02
2023-04-16T10:56:31.490Z,68.06
2023-04-16T10:59:36.254Z,65.83
2023-04-16T11:02:41.561Z,65.39
2023-04-16T11:05:49.039Z,66.52
2023-04-16T11:08:55.298Z,63.58
2023-04-16T11:12:15.092Z,64.73
2023-04-16T11:15:21.870Z,64.16
2023-04-16T11:18:26.168Z,64.05
2023-04-16T11:21:29.787Z,64.13
2023-04-16T11:24:33.457Z,62.12
2023-04-16T11:27:36.707Z,61.30
2023-04-16T11:30:41.659Z,62.65
2023-04-16T11:33:44.981Z,61.12
2023-04-16T11:36:50.610Z,60.20
2023-04-16T11:39:54.000Z,60.04
2023-04-16T11:43:20.088Z,58.32
2023-04-16T11:46:27.663Z,58.98
2023-04-16T11:49:31.172Z,59.87
2023-04-16T11:52:36.516Z,58.94
2023-04-16T11:55:45.925Z,60.75
2023-04-16T11:59:16.011Z,60.56
2023-04-16T12:02:38.222Z,60.25
2023-04-16T12:05:41.551Z,61.63
2023-04-16T12:08:44.712Z,61.66
2023-04-16T12:11:48.028Z,60.49
2023-04-16T12:14:51.523Z,61.79
2023-04-16T12:18:08.189Z,60.30
2023-04-16T12:21:12.515Z,60.33
2023-04-16T12:24:24.234Z,59.96
2023-04-16T12:27:43.655Z,59.41
2023-04-16T12:30:51.574Z,58.23
2023-04-16T12:34:03.655Z,57.33
2023-04-16T12:37:09.696Z,58.46
2023-04-16T12:40:13.225Z,57.95
2023-04-16T12:43:16.583Z,56.36
2023-04-16T12:46:19.986Z,56.11
2023-04-16T12:49:23.423Z,58.40
2023-04-16T12:52:27.370Z,57.58
2023-04-16T12:55:31.045Z,57.52
2023-04-16T12:58:34.573Z,55.44
2023-04-16T13:01:37.861Z,57.45
2023-04-16T13:04:41.274Z,57.25
2023-04-16T13:07:44.515Z,57.92
2023-04-16T13:10:48.008Z,58.06
2023-04-16T13:13:51.351Z,56.63
2023-04-16T13:16:54.302Z,56.93
2023-04-16T13:19:57.332Z,56.11
2023-04-16T13:23:00.499Z,56.87
2023-04-16T13:26:04.174Z,58.29
2023-04-16T13:29:07.431Z,57.16
2023-04-16T13:32:12.233Z,59.57
2023-04-16T13:35:15.769Z,59.50
2023-04-16T13:38:18.848Z,58.38
2023-04-16T13:41:22.454Z,58.58
2023-04-16T13:44:28.946Z,59.19
2023-04-16T13:47:32.098Z,59.49
2023-04-16T13:50:35.851Z,59.49
2023-04-16T13:53:38.910Z,59.15
2023-04-16T13:56:42.416Z,60.19
2023-04-16T13:59:46.398Z,60.67
2023-04-16T14:02:50.279Z,60.42
2023-04-16T14:05:53.641Z,58.24
2023-04-16T14:08:56.718Z,59.12
2023-04-16T14:12:00.565Z,59.69
2023-04-16T14:15:06.737Z,59.69
2023-04-16T14:18:10.036Z,60.71
2023-04-16T14:21:13.713Z,61.67
2023-04-16T14:24:16.834Z,62.13
2023-04-16T14:27:20.042Z,62.77
2023-04-16T14:30:23.728Z,63.91
2023-04-16T14:33:27.496Z,64.69
2023-04-16T14:36:31.414Z,66.33
2023-04-16T14:39:34.508Z,66.71
2023-04-16T14:42:38.877Z,67.05
2023-04-16T14:45:42.143Z,66.50
2023-04-16T14:48:45.865Z,67.28
2023-04-16T14:51:49.152Z,67.97
2023-04-16T14:54:52.758Z,67.66
2023-04-16T14:57:56.621Z,68.63
2023-04-16T15:01:00.224Z,69.01
2023-04-16T15:04:03.609Z,69.37
2023-04-16T15:07:07.138Z,69.55
2023-04-16T15:10:11.040Z,70.55
2023-04-16T15:13:14.435Z,70.80
2023-04-16T15:16:18.070Z,71.09
2023-04-16T15:19:21.689Z,70.81
2023-04-16T15:22:24.566Z,71.13
2023-04-16T15:25:28.036Z,70.16
2023-04-16T15:28:31.476Z,71.50
2023-04-16T15:31:34.843Z,71.41
2023-04-16T15:34:37.929Z,71.46
2023-04-16T15:37:41.819Z,72.21
2023-04-16T15:40:45.309Z,71.06
2023-04-16T15:43:48.518Z,70.55
2023-04-16T15:46:51.699Z,71.70
2023-04-16T15:49:55.476Z,71.62
2023-04-16T15:52:58.705Z,70.93
2023-04-16T15:56:03.449Z,71.26
2023-04-16T15:59:09.607Z,71.55
2023-04-16T16:02:13.041Z,71.02
2023-04-16T16:05:17.120Z,71.56
2023-04-16T16:08:20.355Z,70.73
2023-04-16T16:11:24.127Z,71.49
2023-04-16T16:14:27.404Z,71.64
2023-04-16T16:17:31.158Z,70.93
2023-04-16T16:20:35.104Z,71.03
2023-04-16T16:23:39.313Z,70.98
2023-04-16T16:26:42.615Z,70.90
2023-04-16T16:29:46.318Z,71.19
2023-04-16T16:32:49.596Z,71.68
2023-04-16T16:35:54.131Z,71.45
2023-04-16T16:38:57.599Z,71.59
2023-04-16T16:42:00.973Z,71.47
2023-04-16T16:45:06.179Z,71.57
2023-04-16T16:48:09.643Z,71.38
2023-04-16T16:51:13.046Z,71.85
2023-04-16T16:57:33.384Z,71.66
2023-04-16T17:00:37.374Z,71.20
2023-04-16T17:03:41.345Z,71.38
2023-04-16T17:06:44.797Z,71.32
2023-04-16T17:09:48.146Z,71.89
2023-04-16T17:12:52.108Z,71.58
2023-04-16T17:15:55.630Z,71.90
2023-04-16T17:18:59.550Z,72.37
2023-04-16T17:22:03.208Z,71.68
2023-04-16T17:25:10.433Z,72.02
2023-04-16T17:28:14.055Z,71.47
2023-04-16T17:31:20.669Z,71.12
2023-04-16T17:34:24.112Z,70.53
2023-04-16T17:37:27.804Z,70.84
2023-04-16T17:40:31.064Z,70.02
2023-04-16T17:43:34.085Z,70.40
2023-04-16T17:46:37.373Z,70.84
2023-04-16T17:49:40.902Z,70.45
2023-04-16T17:52:45.009Z,70.84
2023-04-16T17:55:56.747Z,70.34
2023-04-16T17:59:00.838Z,70.21
2023-04-16T18:02:04.231Z,70.63
2023-04-16T18:05:08.311Z,71.07
2023-04-16T18:08:11.370Z,70.43
2023-04-16T18:11:14.346Z,70.36
2023-04-16T18:14:20.082Z,70.41
2023-04-16T18:17:23.484Z,69.75
2023-04-16T18:20:27.408Z,69.83
2023-04-16T18:23:30.558Z,70.23
2023-04-16T18:26:36.198Z,70.01
2023-04-16T18:29:40.561Z,69.93
2023-04-16T18:33:04.260Z,70.19
2023-04-16T18:36:08.698Z,69.85
2023-04-16T18:39:11.912Z,70.31
2023-04-16T18:42:15.351Z,70.57
2023-04-16T18:45:21.896Z,70.47
2023-04-16T18:48:26.841Z,70.50
2023-04-16T18:51:30.589Z,70.17
2023-04-16T18:54:34.784Z,69.85
2023-04-16T18:57:38.124Z,70.10
2023-04-16T19:00:41.261Z,69.61
2023-04-16T19:03:46.553Z,69.66
2023-04-16T19:06:49.797Z,69.35
2023-04-16T19:09:53.445Z,69.79
2023-04-16T19:12:57.441Z,69.38
2023-04-16T19:16:01.783Z,69.44
2023-04-16T19:19:05.375Z,69.27
2023-04-16T19:22:08.428Z,69.29
2023-04-16T19:25:11.527Z,68.61
2023-04-16T19:28:14.723Z,68.38
2023-04-16T19:31:18.960Z,68.26
2023-04-16T19:34:22.369Z,68.38
2023-04-16T19:37:26.005Z,68.35
2023-04-16T19:40:29.126Z,68.71
2023-04-16T19:43:32.550Z,68.60
2023-04-16T19:46:35.871Z,68.34
2023-04-16T19:49:39.628Z,68.75
2023-04-16T19:52:43.496Z,68.91
2023-04-16T19:55:46.818Z,69.31
2023-04-16T19:58:50.082Z,69.11
2023-04-16T20:01:53.814Z,68.87
2023-04-16T20:04:57.111Z,69.18
2023-04-16T20:08:00.459Z,69.14
2023-04-16T20:11:03.520Z,69.26
2023-04-16T20:14:07.054Z,69.76
2023-04-16T20:17:10.509Z,69.84
2023-04-16T20:20:15.798Z,70.14
2023-04-16T20:23:26.014Z,69.79
2023-04-16T20:26:37.901Z,70.64
2023-04-16T20:29:41.661Z,70.92
2023-04-16T20:32:45.470Z,70.93
2023-04-16T20:35:51.168Z,70.17
2023-04-16T20:38:54.875Z,70.62
2023-04-16T20:41:58.595Z,71.44
2023-04-16T20:45:04.130Z,70.84
2023-04-16T20:48:08.068Z,71.00
2023-04-16T20:51:11.479Z,71.47
2023-04-16T20:54:14.612Z,71.71
2023-04-16T20:57:18.008Z,72.26
2023-04-16T21:00:21.674Z,73.55
2023-04-16T21:03:25.374Z,73.63
2023-04-16T21:06:32.971Z,73.68
2023-04-16T21:09:36.462Z,73.48
2023-04-16T21:12:39.963Z,73.69
2023-04-16T21:15:44.519Z,73.36
2023-04-16T21:18:47.568Z,73.44
2023-04-16T21:21:51.528Z,72.18
2023-04-16T21:24:54.645Z,72.17
2023-04-16T21:27:58.080Z,72.09
2023-04-16T21:31:01.361Z,71.52
2023-04-16T21:34:04.734Z,71.51
2023-04-16T21:37:08.376Z,71.62
2023-04-16T21:40:11.739Z,71.89
2023-04-16T21:43:15.750Z,71.59
2023-04-16T21:46:19.059Z,72.04
2023-04-16T21:49:22.405Z,72.51
2023-04-16T21:52:25.639Z,72.50
2023-04-16T21:55:29.003Z,72.01
2023-04-16T21:58:32.428Z,71.38
2023-04-16T22:01:35.612Z,71.55
2023-04-16T22:04:39.152Z,71.00
2023-04-16T22:07:42.892Z,71.30
2023-04-16T22:10:45.941Z,71.48
2023-04-16T22:13:49.624Z,70.80
2023-04-16T22:16:53.714Z,70.84
2023-04-16T22:20:00.477Z,71.05
2023-04-16T22:23:03.307Z,70.94
2023-04-16T22:26:06.336Z,70.34
2023-04-16T22:29:10.351Z,69.98
2023-04-16T22:32:13.901Z,70.09
2023-04-16T22:35:16.851Z,70.08
2023-04-16T22:38:19.891Z,69.87
2023-04-16T22:41:23.467Z,69.94
2023-04-16T22:44:27.164Z,69.82
2023-04-16T22:47:30.169Z,70.00
2023-04-16T22:50:33.629Z,69.47
2023-04-16T22:53:37.245Z,69.42
2023-04-16T22:56:40.875Z,69.25
2023-04-16T22:59:44.591Z,69.09
2023-04-16T23:02:48.439Z,69.08
2023-04-16T23:05:51.973Z,69.48
2023-04-16T23:08:55.646Z,69.55
2023-04-16T23:11:58.982Z,69.28
2023-04-16T23:15:02.207Z,69.42
2023-04-16T23:18:06.090Z,69.28
2023-04-16T23:21:09.431Z,69.49
2023-04-16T23:24:12.756Z,69.64
2023-04-16T23:27:16.341Z,69.28
2023-04-16T23:30:19.514Z,69.57
2023-04-16T23:33:23.029Z,69.90
2023-04-16T23:36:27.027Z,70.10
2023-04-16T23:39:30.497Z,69.56
2023-04-16T23:42:33.632Z,69.91
2023-04-16T23:45:37.065Z,70.12
2023-04-16T23:48:40.421Z,70.18
2023-04-16T23:51:43.786Z,70.06
2023-04-16T23:54:46.877Z,70.40
2023-04-16T23:57:50.151Z,70.41
